Federico Fellini International Airport


Codes: LIPR/RMI
Name: Federico Fellini International Airport
City: Rimini
Country: Italy
Elevation: 40 ft.
Website:
Wikipedia:

Photos at Federico Fellini International Airport


   Photos courtesy of SpottingLog. You can add your own sightings and photos by signing up for a free trial today.



No photos found.

Weather at Federico Fellini International Airport


Time (UTC)DescriptionTempratureWindCloud coverageVisibilityPressureHumidity
23-May-2024 21:00Light Rain20°C7 mph, SW30%10000m1013hPa66%
24-May-2024 00:00Few Clouds17°C7 mph, SW17%10000m1015hPa71%
24-May-2024 03:00Clear Sky15°C7 mph, SW3%10000m1017hPa72%
24-May-2024 06:00Clear Sky17°C2 mph, SW1%10000m1019hPa65%
24-May-2024 09:00Clear Sky20°C4 mph, NE3%10000m1019hPa57%
24-May-2024 12:00Few Clouds21°C13 mph, E13%10000m1018hPa58%
24-May-2024 15:00Broken Clouds22°C13 mph, E52%10000m1017hPa62%
24-May-2024 18:00Broken Clouds19°C7 mph, E59%10000m1016hPa77%
24-May-2024 21:00Scattered Clouds18°C4 mph, SW37%10000m1017hPa76%
25-May-2024 00:00Broken Clouds17°C4 mph, SW58%10000m1017hPa67%
25-May-2024 03:00Overcast Clouds16°C4 mph, SW86%10000m1016hPa66%
25-May-2024 06:00Overcast Clouds18°C2 mph, NE93%10000m1017hPa64%
25-May-2024 09:00Overcast Clouds19°C4 mph, N100%10000m1017hPa62%
25-May-2024 12:00Overcast Clouds20°C4 mph, E100%10000m1016hPa60%
25-May-2024 15:00Light Rain20°C4 mph, NE100%10000m1016hPa62%
25-May-2024 18:00Light Rain18°C2 mph, W100%10000m1016hPa72%
25-May-2024 21:00Light Rain18°C7 mph, W100%10000m1016hPa78%
26-May-2024 00:00Overcast Clouds17°C9 mph, W100%10000m1017hPa80%
26-May-2024 03:00Overcast Clouds16°C9 mph, W100%10000m1017hPa82%
26-May-2024 06:00Broken Clouds18°C11 mph, NW84%10000m1018hPa76%
26-May-2024 09:00Scattered Clouds21°C11 mph, NW28%10000m1019hPa63%
26-May-2024 12:00Few Clouds22°C9 mph, N16%10000m1019hPa61%
26-May-2024 15:00Broken Clouds22°C7 mph, NE68%10000m1018hPa59%
26-May-2024 18:00Broken Clouds21°C2 mph, SW56%10000m1018hPa67%
26-May-2024 21:00Broken Clouds20°C4 mph, SW69%10000m1019hPa67%
27-May-2024 00:00Scattered Clouds19°C4 mph, SW47%10000m1019hPa68%
27-May-2024 03:00Broken Clouds18°C4 mph, SW81%10000m1019hPa68%
27-May-2024 06:00Overcast Clouds20°C2 mph, W91%10000m1019hPa65%
27-May-2024 09:00Broken Clouds23°C4 mph, NE68%10000m1019hPa59%
27-May-2024 12:00Broken Clouds23°C9 mph, NE51%10000m1018hPa61%
27-May-2024 15:00Overcast Clouds22°C4 mph, E99%10000m1017hPa68%
27-May-2024 18:00Overcast Clouds21°C4 mph, SE100%10000m1016hPa70%
27-May-2024 21:00Overcast Clouds20°C7 mph, S91%10000m1016hPa73%
28-May-2024 00:00Overcast Clouds19°C7 mph, SW90%10000m1015hPa69%
28-May-2024 03:00Overcast Clouds17°C7 mph, SW99%10000m1015hPa65%
28-May-2024 06:00Overcast Clouds19°C4 mph, SW95%10000m1015hPa61%
28-May-2024 09:00Clear Sky22°C4 mph, NE0%10000m1016hPa53%
28-May-2024 12:00Scattered Clouds22°C4 mph, NE45%10000m1015hPa59%
28-May-2024 15:00Broken Clouds20°C7 mph, NE65%10000m1015hPa71%
28-May-2024 18:00Broken Clouds20°C9 mph, SE54%10000m1015hPa73%